SeattleWeather.com

KSEA - Seattle/Metro, Washington, USA
Distance from station: SSW 24mi, 39km
Updated: Fri, 19-Jul-2019 11:53am PDT
Mostly Cloudy
Mostly Cloudy
 Wind from NE
Wind: NE 7 mph , 11 km/h
Temperature: 66°F , 19°C
Dew Point: 48°F , 9°C
Humidity: 52%
Barometer: 30.16 inHg , 1021.3 hPa
Clouds: Mostly Cloudy
Visibility: 10 miles , 16 km
Cloud details: Partly Cloudy 2800 ft
Partly Cloudy 3300 ft
Mostly Cloudy 6000 ft
2019/07/19 18:53 KSEA 191853Z 05006KT 10SM SCT028 SCT033 BKN060 19/09 A3016 RMK AO2 SLP219 T01890094
KBFI - Seattle/Boeing, Washington, USA
Distance from station: SSW 18mi, 29km
Updated: Fri, 19-Jul-2019 11:53am PDT
Mostly Cloudy
Mostly Cloudy
 Wind from NW
Wind: NW 5 mph , 7 km/h
Temperature: 64°F , 18°C
Dew Point: 48°F , 9°C
Humidity: 56%
Barometer: 30.16 inHg , 1021.3 hPa
Clouds: Mostly Cloudy
Visibility: 10 miles , 16 km
Cloud details: Mostly Cloudy 2800 ft
Mostly Cloudy 3400 ft
2019/07/19 18:53 KBFI 191853Z 32004KT 10SM BKN028 BKN034 18/09 A3016 RMK AO2 SLP212 T01780094
NWS Forecast for 3 Miles NNW Boulevard Park, WA
National Weather Service Forecast for: 3 Miles NNW Boulevard Park, WA
Issued by: National Weather Service Seattle/Tacoma, WA
Updated: Fri, 19-Jul-2019 7:51am PDT
 
This
Afternoon
This Afternoon: Sunny
Sunny
Saturday

Saturday: Sunny
Sunny
Sunday

Sunday: Sunny
Sunny
Monday

Monday: Sunny
Sunny
Tuesday

Tuesday: Mostly Sunny
Mostly Sunny
Wednesday

Wednesday: Sunny
Sunny
Thursday

Thursday: Sunny
Sunny
 
Hi 74 °F ↓ Hi 80 °F ↓ Hi 84 °F Hi 82 °F Hi 78 °F Hi 77 °F Hi 80 °F  
 
Tonight

Tonight: Mostly Clear
Mostly Clear
Saturday
Night
Saturday Night: Mostly Clear
Mostly Clear
Sunday
Night
Sunday Night: Clear
Clear
Monday
Night
Monday Night: Mostly Clear
Mostly Clear
Tuesday
Night
Tuesday Night: Partly Cloudy
Partly Cloudy
Wednesday
Night
Wednesday Night: Mostly Clear
Mostly Clear
Thursday
Night
Thursday Night: Mostly Clear
Mostly Clear
 
Lo 54 °F Lo 58 °F Lo 59 °F Lo 60 °F Lo 58 °F Lo 57 °F Lo 58 °F  

 

This Afternoon
 
Sunny. High near 74, with temperatures falling to around 72 in the afternoon. North northwest wind around 9 mph.
Tonight
 
Mostly clear, with a low around 54. North northeast wind around 10 mph.
Saturday
 
Sunny. High near 80, with temperatures falling to around 78 in the afternoon. North wind around 10 mph.
Saturday Night
 
Mostly clear, with a low around 58. North northeast wind 5 to 9 mph.
Sunday
 
Sunny, with a high near 84. North wind 5 to 13 mph.
Sunday Night
 
Clear, with a low around 59.
Monday
 
Sunny, with a high near 82.
Monday Night
 
Mostly clear, with a low around 60.
Tuesday
 
Mostly sunny, with a high near 78.
Tuesday Night
 
Partly cloudy, with a low around 58.
Wednesday
 
Sunny, with a high near 77.
Wednesday Night
 
Mostly clear, with a low around 57.
Thursday
 
Sunny, with a high near 80.
Thursday Night
 
Mostly clear, with a low around 58.

 

Forecast from NOAA-NWS for 3 Miles NNW Boulevard Park, WA.